Time;durP1;ratioP1;P1;durP2;ratioP2;P2;SDS_P1;SDS_P2;PMS_P1;PMS_P2;Temp;Humidity;BMP_temperature;BMP_pressure;BME280_temperature;BME280_humidity;BME280_pressure;Samples;Min_cycle;Max_cycle;Signal;HPM_P1;HPM_P2
2022/11/20 00:01:19;;;;;;;28.70;16.80;;;6.50;99.90;;;;;;5095563;28;20259;-74
2022/11/20 00:03:45;;;;;;;34.05;16.85;;;6.50;99.90;;;;;;5107186;28;20459;-74
2022/11/20 00:06:14;;;;;;;26.75;15.13;;;6.50;99.90;;;;;;5114501;28;20211;-73
2022/11/20 00:08:40;;;;;;;25.23;14.38;;;6.50;99.90;;;;;;5085893;28;20656;-74
2022/11/20 00:11:08;;;;;;;34.47;17.05;;;6.50;99.90;;;;;;5113431;28;20257;-73
2022/11/20 00:13:34;;;;;;;32.17;18.50;;;6.50;99.90;;;;;;5114354;28;20182;-74
2022/11/20 00:16:02;;;;;;;31.20;17.10;;;6.50;99.90;;;;;;5095312;28;20637;-73
2022/11/20 00:18:28;;;;;;;33.05;16.67;;;6.50;99.90;;;;;;5113868;28;20204;-74
2022/11/20 00:21:07;;;;;;;28.98;18.23;;;6.50;99.90;;;;;;5095731;28;20251;-73
2022/11/20 00:23:34;;;;;;;29.20;16.35;;;6.50;99.90;;;;;;5095970;28;20168;-74
2022/11/20 00:26:08;;;;;;;30.48;16.58;;;6.50;99.90;;;;;;5112222;28;20239;-74
2022/11/20 00:28:34;;;;;;;29.80;16.83;;;6.50;99.90;;;;;;5103030;28;20531;-74
2022/11/20 00:31:06;;;;;;;25.48;15.52;;;6.50;99.90;;;;;;5077940;28;20667;-73
2022/11/20 00:33:32;;;;;;;30.50;16.70;;;6.50;99.90;;;;;;5111089;28;20233;-73
2022/11/20 00:36:06;;;;;;;31.73;15.47;;;6.50;99.90;;;;;;5113262;28;20211;-73
2022/11/20 00:38:33;;;;;;;35.83;17.08;;;6.50;99.90;;;;;;5094502;28;20210;-74
2022/11/20 00:41:05;;;;;;;27.88;16.10;;;6.40;99.90;;;;;;5093386;28;20308;-74
2022/11/20 00:43:31;;;;;;;27.92;16.23;;;6.40;99.90;;;;;;5112109;28;20187;-74
2022/11/20 00:46:05;;;;;;;29.20;16.97;;;6.40;99.90;;;;;;5113085;28;20325;-74
2022/11/20 00:48:31;;;;;;;32.53;17.00;;;6.50;99.90;;;;;;5113302;28;20873;-74
2022/11/20 00:50:58;;;;;;;35.97;17.95;;;6.40;99.90;;;;;;5095600;28;20206;-74
2022/11/20 00:53:25;;;;;;;29.73;17.02;;;6.40;99.90;;;;;;5113097;28;20171;-73
2022/11/20 00:55:58;;;;;;;30.90;17.00;;;6.40;99.90;;;;;;5095404;28;20549;-74
2022/11/20 00:58:30;;;;;;;27.42;15.07;;;6.40;99.90;;;;;;5104221;28;20203;-74
2022/11/20 01:01:10;;;;;;;34.13;16.42;;;6.40;99.90;;;;;;5094594;28;20214;-74
2022/11/20 01:03:40;;;;;;;38.38;18.50;;;6.40;99.90;;;;;;5095878;28;20171;-74
2022/11/20 01:06:27;;;;;;;29.70;15.98;;;6.40;99.90;;;;;;5114227;28;20532;-73
2022/11/20 01:08:56;;;;;;;29.55;14.80;;;6.40;99.90;;;;;;5110490;28;20188;-73
2022/11/20 01:11:24;;;;;;;29.98;16.50;;;6.40;99.90;;;;;;5113459;28;20672;-74
2022/11/20 01:13:51;;;;;;;31.42;15.45;;;6.40;99.90;;;;;;5113667;28;20175;-73
2022/11/20 01:16:23;;;;;;;32.15;16.52;;;6.40;99.90;;;;;;5113491;28;20191;-74
2022/11/20 01:18:52;;;;;;;28.95;14.60;;;6.40;99.90;;;;;;5095450;28;20176;-73
2022/11/20 01:21:21;;;;;;;29.85;17.05;;;6.40;99.90;;;;;;5095074;28;20211;-73
2022/11/20 01:23:48;;;;;;;29.75;15.82;;;6.30;99.90;;;;;;5113638;28;20167;-73
2022/11/20 01:26:16;;;;;;;32.72;15.45;;;6.30;99.90;;;;;;5093362;28;20235;-74
2022/11/20 01:28:43;;;;;;;30.27;17.10;;;6.30;99.90;;;;;;5094639;28;20182;-74
2022/11/20 01:31:21;;;;;;;34.10;17.95;;;6.30;99.90;;;;;;5094903;28;20295;-74
2022/11/20 01:33:49;;;;;;;33.58;17.02;;;6.30;99.90;;;;;;5100900;28;20169;-73
2022/11/20 01:36:17;;;;;;;29.95;17.35;;;6.30;99.90;;;;;;5094685;28;20234;-73
2022/11/20 01:38:43;;;;;;;27.95;16.58;;;6.30;99.90;;;;;;5109898;27;20650;-73
2022/11/20 01:43:20;;;;;;;31.30;17.83;;;6.30;99.90;;;;;;5115662;28;20272;-73
2022/11/20 01:43:58;;;;;;;29.90;16.10;;;6.30;99.90;;;;;;5114611;27;20492;-75
2022/11/20 01:46:23;;;;;;;29.17;16.30;;;6.30;99.90;;;;;;5110448;28;20205;-74
2022/11/20 01:49:01;;;;;;;27.87;15.17;;;6.30;99.90;;;;;;5093582;28;20176;-73
2022/11/20 01:51:34;;;;;;;30.95;17.48;;;6.30;99.90;;;;;;5114463;27;20179;-75
2022/11/20 01:54:06;;;;;;;31.90;18.95;;;6.30;99.90;;;;;;5114042;27;20175;-73
2022/11/20 01:56:38;;;;;;;29.58;15.98;;;6.30;99.90;;;;;;5098017;27;20187;-74
2022/11/20 01:59:07;;;;;;;34.80;17.77;;;6.30;99.90;;;;;;5096413;28;20187;-74
2022/11/20 02:01:33;;;;;;;31.83;17.90;;;6.30;99.90;;;;;;5097026;28;20744;-73
2022/11/20 02:04:00;;;;;;;34.80;18.02;;;6.30;99.90;;;;;;5115405;28;20572;-74
2022/11/20 02:06:34;;;;;;;32.72;18.50;;;6.30;99.90;;;;;;5116622;28;20164;-73
2022/11/20 02:09:00;;;;;;;32.42;17.23;;;6.30;99.90;;;;;;5116075;28;20296;-74
2022/11/20 02:11:26;;;;;;;34.30;18.70;;;6.30;99.90;;;;;;5114655;28;20251;-73
2022/11/20 02:13:52;;;;;;;34.17;18.23;;;6.30;99.90;;;;;;5096265;28;20294;-74
2022/11/20 02:16:30;;;;;;;35.97;19.35;;;6.30;99.90;;;;;;5113677;28;20727;-74
2022/11/20 02:18:59;;;;;;;34.90;20.02;;;6.20;99.90;;;;;;5094581;28;20743;-73
2022/11/20 02:21:46;;;;;;;36.35;19.38;;;6.20;99.90;;;;;;5112533;28;20676;-73
2022/11/20 02:24:15;;;;;;;37.90;19.23;;;6.20;99.90;;;;;;5094562;28;20186;-73
2022/11/20 02:26:47;;;;;;;36.00;18.50;;;6.20;99.90;;;;;;5114073;28;20259;-74
2022/11/20 02:29:16;;;;;;;34.33;18.10;;;6.10;99.90;;;;;;5095937;28;20218;-73
2022/11/20 02:31:43;;;;;;;28.65;16.35;;;6.10;99.90;;;;;;5096913;28;20172;-74
2022/11/20 02:34:09;;;;;;;32.60;19.65;;;6.10;99.90;;;;;;5116361;28;20176;-73
2022/11/20 02:36:37;;;;;;;37.73;19.03;;;6.10;99.90;;;;;;5116361;28;20214;-74
2022/11/20 02:39:04;;;;;;;38.42;19.80;;;6.10;99.90;;;;;;5116259;28;20525;-73
2022/11/20 02:41:37;;;;;;;33.75;19.35;;;6.10;99.90;;;;;;5097868;28;20211;-74
2022/11/20 02:44:03;;;;;;;35.47;18.85;;;6.00;99.90;;;;;;5097915;28;20180;-73
2022/11/20 02:46:29;;;;;;;34.67;20.67;;;6.00;99.90;;;;;;5116011;28;20182;-74
2022/11/20 02:48:55;;;;;;;34.10;20.40;;;6.00;99.90;;;;;;5097325;28;20172;-74
2022/11/20 02:51:21;;;;;;;33.35;17.40;;;5.90;99.90;;;;;;5115942;28;20428;-73
2022/11/20 02:53:47;;;;;;;34.33;18.92;;;5.90;99.90;;;;;;5115974;28;20179;-73
2022/11/20 02:56:13;;;;;;;32.30;17.30;;;5.90;99.90;;;;;;5116062;28;20240;-73
2022/11/20 02:58:39;;;;;;;36.53;19.33;;;5.90;99.90;;;;;;5097607;28;20439;-73
2022/11/20 03:01:05;;;;;;;33.70;18.87;;;5.90;99.90;;;;;;5116196;28;20243;-74
2022/11/20 03:03:30;;;;;;;40.17;18.83;;;5.90;99.90;;;;;;5097526;28;20179;-74
2022/11/20 03:05:58;;;;;;;34.30;19.20;;;5.90;99.90;;;;;;5097593;28;20207;-74
2022/11/20 03:08:24;;;;;;;34.30;17.92;;;5.90;99.90;;;;;;5115574;28;20183;-74
2022/11/20 03:10:50;;;;;;;34.37;19.17;;;5.90;99.90;;;;;;5116206;28;20203;-75
2022/11/20 03:13:16;;;;;;;31.23;16.63;;;5.90;99.90;;;;;;5115659;28;20207;-74
2022/11/20 03:15:41;;;;;;;39.03;18.87;;;5.80;99.90;;;;;;5097421;28;20214;-74
2022/11/20 03:18:07;;;;;;;33.33;18.93;;;5.80;99.90;;;;;;5115500;28;20198;-73
2022/11/20 03:20:33;;;;;;;36.80;19.20;;;5.80;99.90;;;;;;5115736;28;20211;-74
2022/11/20 03:23:00;;;;;;;35.15;20.05;;;5.80;99.90;;;;;;5115310;28;20538;-74
2022/11/20 03:25:25;;;;;;;32.20;17.80;;;5.80;99.90;;;;;;5096974;28;20200;-73
2022/11/20 03:27:51;;;;;;;35.77;19.10;;;5.80;99.90;;;;;;5114942;28;20269;-73
2022/11/20 03:30:17;;;;;;;32.80;17.60;;;5.80;99.90;;;;;;5097034;28;20203;-74
2022/11/20 03:32:43;;;;;;;31.55;17.63;;;5.80;99.90;;;;;;5115232;28;20956;-73
2022/11/20 03:35:09;;;;;;;36.17;19.47;;;5.80;99.90;;;;;;5115423;28;20264;-74
2022/11/20 03:37:35;;;;;;;35.28;18.45;;;5.70;99.90;;;;;;5096859;28;20401;-73
2022/11/20 03:40:01;;;;;;;30.97;17.30;;;5.70;99.90;;;;;;5096854;28;20203;-74
2022/11/20 03:42:44;;;;;;;32.50;19.53;;;5.70;99.90;;;;;;5096751;28;20877;-74
2022/11/20 03:45:10;;;;;;;33.10;18.45;;;5.70;99.90;;;;;;5096860;28;20207;-73
2022/11/20 03:47:36;;;;;;;29.50;15.87;;;5.70;99.90;;;;;;5096567;28;20183;-73
2022/11/20 03:50:02;;;;;;;32.10;17.60;;;5.70;99.90;;;;;;5096672;28;20455;-74
2022/11/20 03:52:28;;;;;;;35.83;20.23;;;5.70;99.90;;;;;;5114869;28;20924;-74
2022/11/20 03:54:54;;;;;;;39.37;20.10;;;5.70;99.90;;;;;;5114638;28;20204;-74
2022/11/20 03:57:19;;;;;;;32.20;18.73;;;5.70;99.90;;;;;;5114704;28;20172;-74
2022/11/20 03:59:45;;;;;;;34.40;19.13;;;5.70;99.90;;;;;;5096331;28;20210;-73
2022/11/20 04:02:10;;;;;;;27.27;17.87;;;5.70;99.90;;;;;;5113822;28;20215;-74
2022/11/20 04:04:36;;;;;;;31.07;17.27;;;5.70;99.90;;;;;;5114821;28;20203;-73
2022/11/20 04:07:02;;;;;;;36.60;19.00;;;5.70;99.90;;;;;;5096229;28;20172;-73
2022/11/20 04:09:28;;;;;;;34.25;19.17;;;5.70;99.90;;;;;;5114579;28;20278;-73
2022/11/20 04:11:54;;;;;;;30.77;16.97;;;5.70;99.90;;;;;;5114581;28;20218;-74
2022/11/20 04:14:20;;;;;;;30.07;17.07;;;5.70;99.90;;;;;;5114441;28;20510;-74
2022/11/20 04:16:45;;;;;;;29.53;17.43;;;5.70;99.90;;;;;;5114507;28;20611;-74
2022/11/20 04:19:14;;;;;;;29.57;17.77;;;5.70;99.90;;;;;;5114404;28;20419;-74
2022/11/20 04:21:40;;;;;;;33.47;17.50;;;5.70;99.90;;;;;;5114323;28;20195;-73
2022/11/20 04:24:07;;;;;;;35.08;16.45;;;5.70;99.90;;;;;;5114273;28;20178;-73
2022/11/20 04:26:33;;;;;;;33.05;18.80;;;5.70;99.90;;;;;;5112856;28;20696;-74
2022/11/20 04:29:01;;;;;;;28.83;18.02;;;5.70;99.90;;;;;;5095830;28;20178;-73
2022/11/20 04:31:33;;;;;;;32.05;19.73;;;5.70;99.90;;;;;;5114149;28;20675;-74
2022/11/20 04:34:04;;;;;;;33.08;19.25;;;5.70;99.90;;;;;;5096051;28;20658;-74
2022/11/20 04:36:30;;;;;;;34.05;19.92;;;5.70;99.90;;;;;;5114252;28;20163;-75
2022/11/20 04:38:58;;;;;;;43.20;24.15;;;5.70;99.90;;;;;;5114232;28;20600;-74
2022/11/20 04:41:26;;;;;;;46.58;28.63;;;5.60;99.90;;;;;;5095707;28;20278;-73
2022/11/20 04:44:03;;;;;;;31.55;18.75;;;5.70;99.90;;;;;;5114135;28;20164;-73
2022/11/20 04:46:30;;;;;;;32.05;17.48;;;5.60;99.90;;;;;;5114194;28;20176;-74
2022/11/20 04:48:56;;;;;;;33.17;17.08;;;5.60;99.90;;;;;;5095703;28;20220;-74
2022/11/20 04:51:22;;;;;;;31.87;16.17;;;5.60;99.90;;;;;;5095757;28;20191;-73
2022/11/20 04:53:48;;;;;;;31.00;16.57;;;5.60;99.90;;;;;;5113955;28;20698;-74
2022/11/20 04:56:14;;;;;;;28.58;14.77;;;5.60;99.90;;;;;;5113922;28;20438;-73
2022/11/20 04:58:40;;;;;;;29.20;16.42;;;5.60;99.90;;;;;;5114126;28;20164;-74
2022/11/20 05:01:21;;;;;;;30.53;17.60;;;5.60;99.90;;;;;;5114244;28;20230;-74
2022/11/20 05:03:47;;;;;;;36.58;19.20;;;5.60;99.90;;;;;;5095781;28;20819;-73
2022/11/20 05:06:15;;;;;;;28.07;15.67;;;5.60;99.90;;;;;;5095609;28;20342;-74
2022/11/20 05:08:41;;;;;;;30.42;17.10;;;5.60;99.90;;;;;;5095350;28;20443;-73
2022/11/20 05:11:12;;;;;;;29.57;15.97;;;5.60;99.90;;;;;;5113685;28;20242;-73
2022/11/20 05:13:38;;;;;;;30.27;15.63;;;5.60;99.90;;;;;;5098692;28;20411;-73
2022/11/20 05:16:07;;;;;;;32.47;18.20;;;5.60;99.90;;;;;;5099775;28;20203;-73
2022/11/20 05:18:34;;;;;;;28.98;17.10;;;5.50;99.90;;;;;;5117935;28;20658;-73
2022/11/20 05:20:59;;;;;;;29.33;16.95;;;5.50;99.90;;;;;;5118129;28;20256;-74
2022/11/20 05:23:26;;;;;;;32.27;15.77;;;5.60;99.90;;;;;;5117769;28;20655;-74
2022/11/20 05:25:53;;;;;;;34.80;19.17;;;5.50;99.90;;;;;;5099389;28;20266;-73
2022/11/20 05:28:19;;;;;;;37.33;18.02;;;5.50;99.90;;;;;;5117479;28;20251;-73
2022/11/20 05:30:45;;;;;;;28.23;16.90;;;5.50;99.90;;;;;;5118023;28;20597;-73
2022/11/20 05:33:11;;;;;;;34.10;17.83;;;5.50;99.90;;;;;;5099317;28;20267;-73
2022/11/20 05:35:36;;;;;;;37.80;21.90;;;5.50;99.90;;;;;;5117495;28;20462;-74
2022/11/20 05:38:02;;;;;;;36.43;19.77;;;5.50;99.90;;;;;;5099276;28;20221;-74
2022/11/20 05:40:28;;;;;;;58.07;25.73;;;5.50;99.90;;;;;;5099165;28;20200;-74
2022/11/20 05:42:53;;;;;;;38.03;20.30;;;5.50;99.90;;;;;;5099024;28;20197;-73
2022/11/20 05:45:19;;;;;;;39.97;22.50;;;5.50;99.90;;;;;;5099096;28;20260;-73
2022/11/20 05:47:45;;;;;;;41.20;20.63;;;5.50;99.90;;;;;;5098865;28;20176;-73
2022/11/20 05:50:10;;;;;;;39.53;21.27;;;5.50;99.90;;;;;;5117350;28;20256;-73
2022/11/20 05:52:36;;;;;;;34.03;18.00;;;5.50;99.90;;;;;;5099022;28;20180;-72
2022/11/20 05:55:02;;;;;;;31.73;17.37;;;5.50;99.90;;;;;;5098748;28;20208;-74
2022/11/20 05:57:27;;;;;;;34.90;18.80;;;5.50;99.90;;;;;;5098755;28;20182;-74
2022/11/20 05:59:53;;;;;;;31.40;16.80;;;5.50;99.90;;;;;;5116903;28;21005;-74
2022/11/20 06:02:18;;;;;;;31.73;15.20;;;5.50;99.90;;;;;;5116917;28;20236;-74
2022/11/20 06:04:44;;;;;;;30.07;16.13;;;5.50;99.90;;;;;;5116971;28;20282;-73
2022/11/20 06:07:10;;;;;;;24.00;14.80;;;5.50;99.90;;;;;;5116925;28;20179;-73
2022/11/20 06:09:35;;;;;;;27.57;14.90;;;5.60;99.90;;;;;;5116784;28;20691;-74
2022/11/20 06:12:01;;;;;;;23.57;14.17;;;5.60;99.90;;;;;;5098621;28;20629;-74
2022/11/20 06:14:27;;;;;;;26.70;16.07;;;5.60;99.90;;;;;;5098299;28;20196;-73
2022/11/20 06:16:52;;;;;;;26.93;14.93;;;5.60;99.90;;;;;;5098591;28;20175;-73
2022/11/20 06:19:18;;;;;;;28.60;14.60;;;5.60;99.90;;;;;;5098266;28;20207;-73
2022/11/20 06:21:44;;;;;;;23.93;12.93;;;5.60;99.90;;;;;;5098333;28;20235;-73
2022/11/20 06:24:10;;;;;;;29.43;14.37;;;5.60;99.90;;;;;;5116004;28;20617;-73
2022/11/20 06:26:36;;;;;;;27.55;14.70;;;5.60;99.90;;;;;;5116540;28;20727;-74
2022/11/20 06:29:02;;;;;;;27.50;14.80;;;5.60;99.90;;;;;;5098064;28;20268;-73
2022/11/20 06:31:28;;;;;;;22.15;13.70;;;5.60;99.90;;;;;;5115216;28;20259;-74
2022/11/20 06:33:55;;;;;;;28.13;14.32;;;5.60;99.90;;;;;;5098066;28;20203;-73
2022/11/20 06:36:22;;;;;;;26.88;14.52;;;5.60;99.90;;;;;;5116312;28;20701;-73
2022/11/20 06:38:48;;;;;;;27.88;15.00;;;5.60;99.90;;;;;;5114961;28;20168;-73
2022/11/20 06:41:16;;;;;;;30.00;15.30;;;5.60;99.90;;;;;;5116040;28;20587;-73
2022/11/20 06:43:42;;;;;;;26.23;14.98;;;5.60;99.90;;;;;;5097969;28;20180;-73
2022/11/20 06:46:10;;;;;;;29.87;15.43;;;5.60;99.90;;;;;;5116693;28;20192;-73
2022/11/20 06:48:35;;;;;;;26.83;15.43;;;5.60;99.90;;;;;;5097720;28;20179;-73
2022/11/20 06:51:06;;;;;;;33.00;18.10;;;5.60;99.90;;;;;;5115875;28;20226;-73
2022/11/20 06:53:33;;;;;;;28.42;16.13;;;5.60;99.90;;;;;;5097806;28;20266;-74
2022/11/20 06:55:59;;;;;;;29.40;16.67;;;5.60;99.90;;;;;;5116383;28;20218;-74
2022/11/20 06:58:28;;;;;;;27.73;14.52;;;5.60;99.90;;;;;;5115879;28;20175;-73
2022/11/20 07:00:57;;;;;;;30.55;15.68;;;5.60;99.90;;;;;;5116268;28;20200;-74
2022/11/20 07:03:23;;;;;;;30.38;15.82;;;5.60;99.90;;;;;;5097547;28;20192;-73
2022/11/20 07:05:48;;;;;;;28.70;15.13;;;5.60;99.90;;;;;;5116208;28;20275;-73
2022/11/20 07:08:14;;;;;;;26.17;14.33;;;5.60;99.90;;;;;;5097346;28;20180;-73
2022/11/20 07:10:40;;;;;;;29.73;16.07;;;5.60;99.90;;;;;;5115986;28;20198;-73
2022/11/20 07:13:06;;;;;;;27.03;14.63;;;5.60;99.90;;;;;;5115627;28;20218;-73
2022/11/20 07:15:32;;;;;;;26.23;14.38;;;5.60;99.90;;;;;;5115627;28;20216;-73
2022/11/20 07:18:01;;;;;;;30.30;15.33;;;5.70;99.90;;;;;;5097397;28;20215;-74
2022/11/20 07:20:27;;;;;;;27.55;14.85;;;5.70;99.90;;;;;;5097092;28;20199;-74
2022/11/20 07:22:56;;;;;;;26.30;14.57;;;5.60;99.90;;;;;;5097214;28;20225;-73
2022/11/20 07:25:23;;;;;;;22.60;12.60;;;5.70;99.90;;;;;;5097166;28;20436;-73
2022/11/20 07:27:49;;;;;;;27.73;14.00;;;5.70;99.90;;;;;;5096961;28;20227;-74
2022/11/20 07:30:15;;;;;;;29.17;17.73;;;5.70;99.90;;;;;;5096905;28;20210;-74
2022/11/20 07:32:41;;;;;;;31.75;16.55;;;5.70;99.90;;;;;;5115243;28;20255;-73
2022/11/20 07:35:08;;;;;;;26.88;13.77;;;5.70;99.90;;;;;;5097144;28;20216;-73
2022/11/20 07:37:34;;;;;;;29.80;15.60;;;5.70;99.90;;;;;;5115340;28;20171;-73
2022/11/20 07:40:00;;;;;;;25.13;14.05;;;5.70;99.90;;;;;;5096715;28;20237;-73
2022/11/20 07:42:26;;;;;;;25.93;13.90;;;5.70;99.90;;;;;;5114928;28;20231;-73
2022/11/20 07:44:51;;;;;;;34.50;19.90;;;5.70;99.90;;;;;;5096880;28;20243;-73
2022/11/20 07:47:17;;;;;;;29.93;13.87;;;5.70;99.90;;;;;;5114963;28;20168;-72
2022/11/20 07:49:43;;;;;;;32.27;15.40;;;5.70;99.90;;;;;;5096404;28;20533;-73
2022/11/20 07:52:08;;;;;;;24.97;15.10;;;5.70;99.90;;;;;;5115015;28;20172;-73
2022/11/20 07:54:34;;;;;;;26.53;15.70;;;5.70;99.90;;;;;;5114932;28;20245;-73
2022/11/20 07:56:59;;;;;;;29.70;15.13;;;5.70;99.90;;;;;;5114858;28;20172;-73
2022/11/20 07:59:25;;;;;;;28.43;14.47;;;5.80;99.90;;;;;;5114726;28;20664;-73
2022/11/20 08:01:50;;;;;;;31.90;16.07;;;5.80;99.90;;;;;;5114654;28;20259;-73
2022/11/20 08:04:16;;;;;;;26.80;16.63;;;5.80;99.90;;;;;;5096307;28;20214;-74
2022/11/20 08:06:42;;;;;;;30.70;14.17;;;5.80;99.90;;;;;;5096400;28;20548;-73
2022/11/20 08:09:08;;;;;;;29.40;16.53;;;5.80;99.90;;;;;;5114341;28;20565;-74
2022/11/20 08:14:18;;;;;;;29.15;18.13;;;5.90;99.90;;;;;;5114775;28;20393;-73
2022/11/20 08:16:46;;;;;;;30.30;17.70;;;5.90;99.90;;;;;;5114401;28;20243;-74
2022/11/20 08:19:13;;;;;;;29.20;17.60;;;5.90;99.90;;;;;;5114241;28;20416;-73
2022/11/20 08:21:39;;;;;;;30.35;15.55;;;5.90;99.90;;;;;;5096148;28;20269;-74
2022/11/20 08:24:05;;;;;;;30.70;15.82;;;5.90;99.90;;;;;;5114376;28;20160;-73
2022/11/20 08:26:31;;;;;;;29.45;16.48;;;6.00;99.90;;;;;;5092547;28;20228;-73
2022/11/20 08:28:57;;;;;;;29.60;16.20;;;6.00;99.90;;;;;;5092374;28;20267;-74
2022/11/20 08:31:25;;;;;;;27.75;14.48;;;6.00;99.90;;;;;;5092412;28;20578;-73
2022/11/20 08:33:51;;;;;;;24.15;13.95;;;6.00;99.90;;;;;;5093358;28;20615;-73
2022/11/20 08:36:17;;;;;;;28.55;15.00;;;6.00;99.90;;;;;;5093229;28;20673;-74
2022/11/20 08:38:47;;;;;;;28.67;14.55;;;6.00;99.90;;;;;;5093524;28;20188;-73
2022/11/20 08:41:26;;;;;;;24.73;13.98;;;6.10;99.90;;;;;;5092422;28;20589;-74
2022/11/20 08:43:56;;;;;;;25.52;14.15;;;6.10;99.90;;;;;;5109165;28;20635;-73
2022/11/20 08:46:23;;;;;;;26.67;14.55;;;6.10;99.90;;;;;;5093773;28;20196;-74
2022/11/20 08:48:49;;;;;;;26.02;13.88;;;6.10;99.90;;;;;;5099711;28;20172;-73
2022/11/20 08:51:15;;;;;;;29.10;14.40;;;6.20;99.90;;;;;;5099014;28;20676;-73
2022/11/20 08:53:41;;;;;;;27.90;14.52;;;6.20;99.90;;;;;;5098951;28;20275;-74
2022/11/20 08:56:09;;;;;;;23.48;13.25;;;6.20;99.90;;;;;;5099857;28;20204;-74
2022/11/20 08:58:35;;;;;;;27.15;13.70;;;6.30;99.90;;;;;;5099890;28;20607;-74
2022/11/20 09:01:01;;;;;;;25.17;13.77;;;6.30;99.90;;;;;;5100658;28;20247;-74
2022/11/20 09:03:27;;;;;;;30.00;14.88;;;6.30;99.90;;;;;;5098815;28;20420;-73
2022/11/20 09:06:03;;;;;;;25.53;13.60;;;6.40;99.90;;;;;;5100356;28;20669;-73
2022/11/20 09:08:30;;;;;;;23.98;14.05;;;6.40;99.90;;;;;;5098338;28;20523;-73
2022/11/20 09:10:57;;;;;;;27.65;13.40;;;6.40;99.90;;;;;;5100445;28;20275;-74
2022/11/20 09:13:24;;;;;;;26.17;14.85;;;6.50;99.90;;;;;;5098805;28;20233;-73
2022/11/20 09:15:57;;;;;;;31.40;17.35;;;6.50;99.90;;;;;;5098590;28;20211;-73
2022/11/20 09:18:24;;;;;;;28.45;13.25;;;6.50;99.90;;;;;;5098334;28;20649;-73
2022/11/20 09:20:50;;;;;;;27.67;14.65;;;6.50;99.90;;;;;;5098993;28;20724;-74
2022/11/20 09:23:16;;;;;;;26.37;15.67;;;6.60;99.90;;;;;;5099866;28;20298;-74
2022/11/20 09:25:42;;;;;;;28.30;14.52;;;6.60;99.90;;;;;;5100195;28;20208;-73
2022/11/20 09:28:08;;;;;;;22.20;13.18;;;6.60;99.90;;;;;;5101794;28;20172;-73
2022/11/20 09:30:34;;;;;;;41.10;22.20;;;6.60;99.90;;;;;;5119453;28;20223;-73
2022/11/20 09:33:00;;;;;;;25.40;14.70;;;6.70;99.90;;;;;;5102056;28;20412;-74
2022/11/20 09:35:25;;;;;;;26.10;13.67;;;6.70;99.90;;;;;;5101587;28;20207;-74
2022/11/20 09:37:51;;;;;;;25.70;13.43;;;6.70;99.90;;;;;;5119930;28;20403;-73
2022/11/20 09:40:22;;;;;;;27.07;12.83;;;6.70;99.90;;;;;;5100699;28;20206;-74
2022/11/20 09:43:18;;;;;;;21.33;12.93;;;6.70;99.90;;;;;;5120367;28;20204;-74
2022/11/20 09:45:56;;;;;;;21.38;12.60;;;6.80;99.90;;;;;;5101989;28;20570;-73
2022/11/20 09:48:35;;;;;;;25.80;13.50;;;6.90;99.90;;;;;;5119802;28;20164;-74
2022/11/20 09:51:10;;;;;;;26.65;13.88;;;7.00;99.90;;;;;;5120541;28;20226;-74
2022/11/20 09:53:45;;;;;;;24.52;13.07;;;7.10;99.90;;;;;;5120128;28;20662;-74
2022/11/20 09:56:12;;;;;;;24.15;14.38;;;7.10;99.90;;;;;;5084228;28;20199;-74
2022/11/20 09:59:07;;;;;;;25.90;14.45;;;7.20;99.90;;;;;;5115594;28;20168;-73
2022/11/20 10:01:38;;;;;;;26.73;14.10;;;7.20;99.90;;;;;;5109504;28;20235;-73
2022/11/20 10:04:10;;;;;;;22.92;13.00;;;7.20;99.90;;;;;;5114489;28;20179;-74
2022/11/20 10:07:00;;;;;;;26.25;15.45;;;7.30;99.90;;;;;;5114636;28;20485;-73
2022/11/20 10:09:32;;;;;;;25.67;15.65;;;7.30;99.90;;;;;;5096028;28;20199;-73
2022/11/20 10:12:06;;;;;;;31.65;18.25;;;7.40;99.90;;;;;;5097357;28;20180;-74
2022/11/20 10:14:45;;;;;;;30.42;16.85;;;7.50;99.90;;;;;;5116638;28;20207;-74
2022/11/20 10:17:51;;;;;;;38.17;19.77;;;7.60;99.90;;;;;;5116203;28;20175;-73
2022/11/20 10:20:42;;;;;;;23.83;14.40;;;7.70;99.90;;;;;;5098112;28;20199;-73
2022/11/20 10:23:38;;;;;;;27.63;13.65;;;7.90;99.90;;;;;;5116585;28;20187;-74
2022/11/20 10:26:44;;;;;;;24.00;12.93;;;8.00;99.90;;;;;;5097890;28;20242;-74
2022/11/20 10:29:14;;;;;;;26.80;15.15;;;8.10;99.90;;;;;;5061076;28;20187;-74
2022/11/20 10:31:53;;;;;;;24.70;13.73;;;8.30;99.90;;;;;;5097941;28;20167;-74
2022/11/20 10:34:38;;;;;;;22.77;12.13;;;8.40;99.90;;;;;;5115872;28;20207;-74
2022/11/20 10:37:14;;;;;;;25.40;13.80;;;8.40;99.90;;;;;;5116028;28;20633;-74
2022/11/20 10:39:50;;;;;;;23.52;13.63;;;8.60;99.90;;;;;;5116249;28;20211;-74
2022/11/20 10:42:51;;;;;;;21.50;14.35;;;8.70;99.90;;;;;;5116035;28;20206;-73
2022/11/20 10:45:21;;;;;;;27.45;14.32;;;8.70;99.90;;;;;;5039516;28;20569;-73
2022/11/20 10:47:48;;;;;;;25.75;14.32;;;8.80;99.90;;;;;;5095333;28;20188;-74
2022/11/20 10:50:19;;;;;;;20.08;11.90;;;8.80;99.90;;;;;;5111748;28;20723;-74
2022/11/20 10:52:50;;;;;;;22.08;12.88;;;8.90;99.90;;;;;;5115931;28;20171;-74
2022/11/20 10:55:44;;;;;;;28.95;15.18;;;8.90;99.90;;;;;;5116134;28;20200;-74
2022/11/20 10:58:29;;;;;;;39.92;21.83;;;8.90;99.90;;;;;;5097166;28;20179;-74
2022/11/20 11:01:05;;;;;;;52.63;27.23;;;8.90;99.90;;;;;;5116222;28;20202;-74
2022/11/20 11:03:32;;;;;;;54.40;29.95;;;8.90;99.90;;;;;;5097301;28;20183;-74
2022/11/20 11:06:10;;;;;;;37.75;21.55;;;8.90;99.90;;;;;;5097351;28;20241;-74
2022/11/20 11:08:38;;;;;;;26.92;16.15;;;8.80;99.90;;;;;;5115358;28;20621;-73
2022/11/20 11:11:28;;;;;;;24.67;12.90;;;8.80;99.90;;;;;;5115657;28;20548;-74
2022/11/20 11:14:11;;;;;;;28.60;14.88;;;8.80;99.90;;;;;;5115348;28;20172;-74
2022/11/20 11:16:53;;;;;;;25.95;15.50;;;8.80;99.90;;;;;;5096871;28;20240;-74
2022/11/20 11:19:19;;;;;;;22.10;13.45;;;8.80;99.90;;;;;;5115251;28;20212;-74
2022/11/20 11:21:54;;;;;;;24.63;15.10;;;8.80;99.90;;;;;;5115311;28;20226;-74
2022/11/20 11:24:30;;;;;;;28.67;14.55;;;8.80;99.90;;;;;;5114853;28;20481;-74
2022/11/20 11:27:06;;;;;;;29.38;15.30;;;8.80;99.90;;;;;;5096484;28;20223;-74
2022/11/20 11:29:33;;;;;;;63.53;35.28;;;8.80;99.90;;;;;;5096722;28;20207;-74
2022/11/20 11:32:21;;;;;;;47.50;25.02;;;8.80;99.90;;;;;;5115259;28;20168;-74
2022/11/20 11:35:06;;;;;;;38.80;22.48;;;8.80;99.90;;;;;;5114833;28;20274;-74
2022/11/20 11:37:38;;;;;;;35.92;22.55;;;8.90;99.90;;;;;;5096383;28;20184;-73
2022/11/20 11:40:05;;;;;;;25.35;15.55;;;8.90;99.90;;;;;;5115032;28;20248;-74
2022/11/20 11:42:31;;;;;;;27.73;14.90;;;8.90;99.90;;;;;;5096607;28;20211;-73
2022/11/20 11:45:05;;;;;;;24.80;15.00;;;8.90;99.90;;;;;;5096526;28;20771;-74
2022/11/20 11:47:31;;;;;;;29.52;15.07;;;9.00;99.90;;;;;;5096231;28;20270;-74
2022/11/20 11:50:09;;;;;;;28.43;16.90;;;9.00;99.90;;;;;;5096326;28;20254;-74
2022/11/20 11:52:48;;;;;;;25.40;15.45;;;9.00;99.90;;;;;;5114840;28;20180;-74
2022/11/20 11:55:31;;;;;;;23.02;13.98;;;9.00;99.90;;;;;;5096395;28;20235;-74
2022/11/20 11:58:15;;;;;;;22.92;13.13;;;9.00;99.90;;;;;;5096071;28;20588;-74
2022/11/20 12:00:49;;;;;;;24.58;13.70;;;9.00;99.90;;;;;;5114537;28;20231;-74
2022/11/20 12:03:27;;;;;;;20.85;12.73;;;9.10;99.90;;;;;;5096172;28;20182;-74
2022/11/20 12:05:59;;;;;;;29.73;16.63;;;9.00;99.90;;;;;;5115096;28;20195;-74
2022/11/20 12:08:31;;;;;;;24.73;13.98;;;9.00;99.90;;;;;;5095538;28;20266;-74
2022/11/20 12:11:21;;;;;;;26.00;16.80;;;9.00;99.90;;;;;;5114911;28;20199;-74
2022/11/20 12:14:03;;;;;;;23.05;14.88;;;9.10;99.90;;;;;;5114269;28;20566;-73
2022/11/20 12:16:34;;;;;;;24.75;15.98;;;9.10;99.90;;;;;;5114160;28;20229;-74
2022/11/20 12:19:00;;;;;;;22.05;13.38;;;9.10;99.90;;;;;;5095698;28;20172;-75
2022/11/20 12:21:46;;;;;;;20.23;14.50;;;9.10;99.90;;;;;;5095770;28;20211;-73
2022/11/20 12:24:42;;;;;;;25.73;14.45;;;9.10;99.90;;;;;;5095629;28;20191;-74
2022/11/20 12:27:29;;;;;;;25.98;15.55;;;9.10;99.90;;;;;;5095669;28;20216;-74
2022/11/20 12:30:00;;;;;;;20.73;13.18;;;9.10;99.90;;;;;;5095828;28;20211;-74
2022/11/20 12:33:00;;;;;;;21.80;13.55;;;9.10;99.90;;;;;;5095819;28;20175;-74
2022/11/20 12:35:44;;;;;;;25.40;13.32;;;9.10;99.90;;;;;;5095824;28;20200;-74
2022/11/20 12:38:37;;;;;;;23.88;14.32;;;9.00;99.90;;;;;;5095403;28;20219;-74
2022/11/20 12:41:11;;;;;;;25.30;14.25;;;9.00;99.90;;;;;;5095945;28;20570;-74
2022/11/20 12:47:14;;;;;;;27.38;14.75;;;9.00;99.90;;;;;;5113847;28;20233;-74
2022/11/20 12:50:01;;;;;;;25.55;14.95;;;9.00;99.90;;;;;;5113703;28;20203;-74
2022/11/20 12:52:37;;;;;;;27.40;16.08;;;9.00;99.90;;;;;;5113887;28;20711;-74
2022/11/20 12:55:21;;;;;;;25.58;15.90;;;9.00;99.90;;;;;;5114021;28;20211;-74
2022/11/20 12:58:27;;;;;;;20.38;13.63;;;9.00;99.90;;;;;;5095262;28;20188;-74